sensor_id;sensor_type;location;lat;lon;timestamp;pressure;altitude;pressure_sealevel;temperature;humidity
71043;BME280;58696;52.134;5.500;2023-02-22T00:01:04;101722.97;;;6.52;92.79
71043;BME280;58696;52.134;5.500;2023-02-22T00:03:50;101727.97;;;6.53;92.78
71043;BME280;58696;52.134;5.500;2023-02-22T00:06:19;101716.00;;;6.54;93.01
71043;BME280;58696;52.134;5.500;2023-02-22T00:08:51;101721.25;;;6.52;93.01
71043;BME280;58696;52.134;5.500;2023-02-22T00:11:20;101721.13;;;6.54;92.85
71043;BME280;58696;52.134;5.500;2023-02-22T00:13:49;101716.00;;;6.54;92.97
71043;BME280;58696;52.134;5.500;2023-02-22T00:16:20;101728.63;;;6.55;93.02
71043;BME280;58696;52.134;5.500;2023-02-22T00:18:47;101725.94;;;6.57;93.02
71043;BME280;58696;52.134;5.500;2023-02-22T00:21:15;101717.75;;;6.53;93.04
71043;BME280;58696;52.134;5.500;2023-02-22T00:23:44;101717.75;;;6.53;93.16
71043;BME280;58696;52.134;5.500;2023-02-22T00:26:20;101722.88;;;6.53;93.13
71043;BME280;58696;52.134;5.500;2023-02-22T00:28:51;101725.44;;;6.53;92.99
71043;BME280;58696;52.134;5.500;2023-02-22T00:31:20;101717.75;;;6.53;93.03
71043;BME280;58696;52.134;5.500;2023-02-22T00:33:49;101723.69;;;6.54;92.92
71043;BME280;58696;52.134;5.500;2023-02-22T00:36:15;101719.38;;;6.54;93.25
71043;BME280;58696;52.134;5.500;2023-02-22T00:38:45;101718.72;;;6.52;92.88
71043;BME280;58696;52.134;5.500;2023-02-22T00:41:12;101720.97;;;6.55;92.92
71043;BME280;58696;52.134;5.500;2023-02-22T00:43:40;101717.63;;;6.55;93.14
71043;BME280;58696;52.134;5.500;2023-02-22T00:46:09;101717.75;;;6.53;93.11
71043;BME280;58696;52.134;5.500;2023-02-22T00:48:35;101721.38;;;6.51;93.00
71043;BME280;58696;52.134;5.500;2023-02-22T00:51:07;101719.63;;;6.51;92.90
71043;BME280;58696;52.134;5.500;2023-02-22T00:53:33;101718.03;;;6.50;92.90
71043;BME280;58696;52.134;5.500;2023-02-22T00:56:03;101717.34;;;6.48;92.76
71043;BME280;58696;52.134;5.500;2023-02-22T00:58:35;101706.34;;;6.48;92.87
71043;BME280;58696;52.134;5.500;2023-02-22T01:01:02;101707.25;;;6.47;92.95
71043;BME280;58696;52.134;5.500;2023-02-22T01:03:29;101692.22;;;6.44;93.01
71043;BME280;58696;52.134;5.500;2023-02-22T01:05:57;101699.72;;;6.45;92.92
71043;BME280;58696;52.134;5.500;2023-02-22T01:08:29;101691.41;;;6.43;92.84
71043;BME280;58696;52.134;5.500;2023-02-22T01:10:56;101699.06;;;6.43;92.96
71043;BME280;58696;52.134;5.500;2023-02-22T01:13:25;101694.22;;;6.40;93.08
71043;BME280;58696;52.134;5.500;2023-02-22T01:15:52;101687.38;;;6.41;92.96
71043;BME280;58696;52.134;5.500;2023-02-22T01:18:24;101680.78;;;6.38;92.98
71043;BME280;58696;52.134;5.500;2023-02-22T01:20:51;101687.50;;;6.39;93.03
71043;BME280;58696;52.134;5.500;2023-02-22T01:23:17;101682.53;;;6.38;93.03
71043;BME280;58696;52.134;5.500;2023-02-22T01:25:44;101684.28;;;6.37;93.23
71043;BME280;58696;52.134;5.500;2023-02-22T01:28:10;101685.25;;;6.36;93.23
71043;BME280;58696;52.134;5.500;2023-02-22T01:30:39;101677.69;;;6.35;93.20
71043;BME280;58696;52.134;5.500;2023-02-22T01:33:08;101683.75;;;6.33;93.10
71043;BME280;58696;52.134;5.500;2023-02-22T01:35:38;101674.47;;;6.32;93.17
71043;BME280;58696;52.134;5.500;2023-02-22T01:38:10;101670.31;;;6.31;93.26
71043;BME280;58696;52.134;5.500;2023-02-22T01:40:38;101672.97;;;6.30;93.30
71043;BME280;58696;52.134;5.500;2023-02-22T01:45:49;101674.31;;;6.24;93.33
71043;BME280;58696;52.134;5.500;2023-02-22T01:48:44;101664.09;;;6.24;93.54
71043;BME280;58696;52.134;5.500;2023-02-22T01:51:21;101658.19;;;6.24;93.39
71043;BME280;58696;52.134;5.500;2023-02-22T01:53:58;101658.19;;;6.24;93.66
71043;BME280;58696;52.134;5.500;2023-02-22T01:56:29;101658.34;;;6.22;93.35
71043;BME280;58696;52.134;5.500;2023-02-22T01:59:08;101661.84;;;6.21;93.50
71043;BME280;58696;52.134;5.500;2023-02-22T02:01:37;101663.44;;;6.22;93.54
71043;BME280;58696;52.134;5.500;2023-02-22T02:04:09;101653.38;;;6.21;93.49
71043;BME280;58696;52.134;5.500;2023-02-22T02:06:39;101655.38;;;6.17;93.69
71043;BME280;58696;52.134;5.500;2023-02-22T02:09:18;101656.47;;;6.15;93.48
71043;BME280;58696;52.134;5.500;2023-02-22T02:11:50;101639.00;;;6.10;93.31
71043;BME280;58696;52.134;5.500;2023-02-22T02:14:19;101650.41;;;6.06;93.33
71043;BME280;58696;52.134;5.500;2023-02-22T02:16:48;101640.44;;;6.03;93.36
71043;BME280;58696;52.134;5.500;2023-02-22T02:25:10;101642.72;;;5.96;93.14
71043;BME280;58696;52.134;5.500;2023-02-22T02:28:00;101638.41;;;5.97;93.08
71043;BME280;58696;52.134;5.500;2023-02-22T02:30:46;101640.31;;;5.95;93.07
71043;BME280;58696;52.134;5.500;2023-02-22T02:35:55;101631.78;;;5.85;93.04
71043;BME280;58696;52.134;5.500;2023-02-22T02:38:39;101623.59;;;5.81;93.12
71043;BME280;58696;52.134;5.500;2023-02-22T02:41:15;101622.13;;;5.78;93.18
71043;BME280;58696;52.134;5.500;2023-02-22T02:43:52;101619.72;;;5.77;93.19
71043;BME280;58696;52.134;5.500;2023-02-22T02:46:25;101612.97;;;5.76;92.94
71043;BME280;58696;52.134;5.500;2023-02-22T02:49:00;101607.34;;;5.72;93.07
71043;BME280;58696;52.134;5.500;2023-02-22T02:51:36;101604.25;;;5.69;93.42
71043;BME280;58696;52.134;5.500;2023-02-22T02:54:05;101609.63;;;5.66;93.26
71043;BME280;58696;52.134;5.500;2023-02-22T02:56:33;101600.84;;;5.59;93.19
71043;BME280;58696;52.134;5.500;2023-02-22T02:59:00;101598.16;;;5.50;93.07
71043;BME280;58696;52.134;5.500;2023-02-22T03:07:27;101593.16;;;5.39;93.32
71043;BME280;58696;52.134;5.500;2023-02-22T03:10:09;101588.06;;;5.39;93.29
71043;BME280;58696;52.134;5.500;2023-02-22T03:13:34;101599.06;;;5.40;93.28
71043;BME280;58696;52.134;5.500;2023-02-22T03:16:07;101590.88;;;5.36;93.52
71043;BME280;58696;52.134;5.500;2023-02-22T03:21:24;101585.78;;;5.36;93.15
71043;BME280;58696;52.134;5.500;2023-02-22T03:24:00;101583.22;;;5.36;92.99
71043;BME280;58696;52.134;5.500;2023-02-22T03:26:45;101588.31;;;5.36;93.22
71043;BME280;58696;52.134;5.500;2023-02-22T03:29:19;101576.75;;;5.32;93.28
71043;BME280;58696;52.134;5.500;2023-02-22T03:31:52;101576.91;;;5.31;93.24
71043;BME280;58696;52.134;5.500;2023-02-22T03:34:24;101575.66;;;5.25;93.35
71043;BME280;58696;52.134;5.500;2023-02-22T03:36:58;101579.53;;;5.19;93.47
71043;BME280;58696;52.134;5.500;2023-02-22T03:39:27;101577.94;;;5.18;93.42
71043;BME280;58696;52.134;5.500;2023-02-22T03:42:05;101572.13;;;5.16;93.53
71043;BME280;58696;52.134;5.500;2023-02-22T03:44:36;101567.97;;;5.15;93.52
71043;BME280;58696;52.134;5.500;2023-02-22T03:47:08;101566.25;;;5.16;93.55
71043;BME280;58696;52.134;5.500;2023-02-22T03:49:42;101568.13;;;5.14;93.53
71043;BME280;58696;52.134;5.500;2023-02-22T03:52:12;101569.56;;;5.07;93.56
71043;BME280;58696;52.134;5.500;2023-02-22T03:54:39;101564.06;;;5.01;93.62
71043;BME280;58696;52.134;5.500;2023-02-22T03:57:16;101562.56;;;4.99;93.69
71043;BME280;58696;52.134;5.500;2023-02-22T03:59:46;101563.25;;;5.01;93.84
71043;BME280;58696;52.134;5.500;2023-02-22T04:02:12;101552.94;;;5.03;93.68
71043;BME280;58696;52.134;5.500;2023-02-22T04:04:47;101557.88;;;5.04;93.68
71043;BME280;58696;52.134;5.500;2023-02-22T04:07:14;101555.47;;;5.03;93.63
71043;BME280;58696;52.134;5.500;2023-02-22T04:09:41;101553.88;;;5.01;93.90
71043;BME280;58696;52.134;5.500;2023-02-22T04:12:08;101538.59;;;5.01;93.81
71043;BME280;58696;52.134;5.500;2023-02-22T04:14:34;101540.31;;;5.01;93.91
71043;BME280;58696;52.134;5.500;2023-02-22T04:17:06;101542.97;;;4.99;93.66
71043;BME280;58696;52.134;5.500;2023-02-22T04:19:37;101541.38;;;4.98;93.94
71043;BME280;58696;52.134;5.500;2023-02-22T04:22:07;101544.84;;;4.97;93.99
71043;BME280;58696;52.134;5.500;2023-02-22T04:24:34;101543.38;;;4.95;93.85
71043;BME280;58696;52.134;5.500;2023-02-22T04:27:00;101538.41;;;4.93;94.16
71043;BME280;58696;52.134;5.500;2023-02-22T04:29:26;101533.44;;;4.92;94.00
71043;BME280;58696;52.134;5.500;2023-02-22T04:31:55;101536.00;;;4.92;93.96
71043;BME280;58696;52.134;5.500;2023-02-22T04:34:26;101526.75;;;4.91;94.13
71043;BME280;58696;52.134;5.500;2023-02-22T04:36:55;101526.88;;;4.89;94.17
71043;BME280;58696;52.134;5.500;2023-02-22T04:39:21;101519.47;;;4.86;94.26
71043;BME280;58696;52.134;5.500;2023-02-22T04:41:50;101523.91;;;4.84;94.33
71043;BME280;58696;52.134;5.500;2023-02-22T04:44:19;101521.34;;;4.84;94.45
71043;BME280;58696;52.134;5.500;2023-02-22T04:46:50;101512.22;;;4.82;94.40
71043;BME280;58696;52.134;5.500;2023-02-22T04:49:18;101514.09;;;4.80;94.41
71043;BME280;58696;52.134;5.500;2023-02-22T04:51:49;101511.53;;;4.80;94.47
71043;BME280;58696;52.134;5.500;2023-02-22T04:54:16;101501.38;;;4.80;94.67
71043;BME280;58696;52.134;5.500;2023-02-22T04:56:44;101501.47;;;4.78;94.63
71043;BME280;58696;52.134;5.500;2023-02-22T04:59:15;101505.75;;;4.78;94.73
71043;BME280;58696;52.134;5.500;2023-02-22T05:01:42;101495.47;;;4.79;94.56
71043;BME280;58696;52.134;5.500;2023-02-22T05:04:11;101492.91;;;4.79;94.90
71043;BME280;58696;52.134;5.500;2023-02-22T05:06:37;101480.19;;;4.79;94.85
71043;BME280;58696;52.134;5.500;2023-02-22T05:09:04;101475.91;;;4.80;94.77
71043;BME280;58696;52.134;5.500;2023-02-22T05:11:31;101496.13;;;4.81;95.14
71043;BME280;58696;52.134;5.500;2023-02-22T05:13:57;101479.63;;;4.75;95.10
71043;BME280;58696;52.134;5.500;2023-02-22T05:16:27;101480.69;;;4.73;95.19
71043;BME280;58696;52.134;5.500;2023-02-22T05:18:54;101480.00;;;4.71;95.20
71043;BME280;58696;52.134;5.500;2023-02-22T05:21:21;101479.19;;;4.70;95.27
71043;BME280;58696;52.134;5.500;2023-02-22T05:23:48;101477.31;;;4.72;95.47
71043;BME280;58696;52.134;5.500;2023-02-22T05:26:16;101472.13;;;4.74;95.49
71043;BME280;58696;52.134;5.500;2023-02-22T05:28:45;101473.59;;;4.77;95.53
71043;BME280;58696;52.134;5.500;2023-02-22T05:31:15;101468.38;;;4.78;95.54
71043;BME280;58696;52.134;5.500;2023-02-22T05:33:44;101466.50;;;4.80;95.48
71043;BME280;58696;52.134;5.500;2023-02-22T05:36:11;101471.34;;;4.83;95.41
71043;BME280;58696;52.134;5.500;2023-02-22T05:38:38;101463.69;;;4.83;95.82
71043;BME280;58696;52.134;5.500;2023-02-22T05:41:11;101463.69;;;4.83;95.85
71043;BME280;58696;52.134;5.500;2023-02-22T05:43:38;101468.00;;;4.83;95.55
71043;BME280;58696;52.134;5.500;2023-02-22T05:46:10;101465.00;;;4.78;95.79
71043;BME280;58696;52.134;5.500;2023-02-22T05:48:39;101461.94;;;4.74;95.92
71043;BME280;58696;52.134;5.500;2023-02-22T05:51:07;101453.75;;;4.70;96.00
71043;BME280;58696;52.134;5.500;2023-02-22T05:53:36;101465.66;;;4.70;96.12
71043;BME280;58696;52.134;5.500;2023-02-22T05:56:03;101446.34;;;4.67;96.22
71043;BME280;58696;52.134;5.500;2023-02-22T05:58:30;101453.88;;;4.69;95.96
71043;BME280;58696;52.134;5.500;2023-02-22T06:00:56;101450.53;;;4.68;96.26
71043;BME280;58696;52.134;5.500;2023-02-22T06:03:23;101454.81;;;4.68;96.11
71043;BME280;58696;52.134;5.500;2023-02-22T06:05:52;101447.28;;;4.66;96.33
71043;BME280;58696;52.134;5.500;2023-02-22T06:08:18;101433.63;;;4.67;96.45
71043;BME280;58696;52.134;5.500;2023-02-22T06:10:45;101426.91;;;4.66;96.36
71043;BME280;58696;52.134;5.500;2023-02-22T06:13:14;101428.53;;;4.67;96.57
71043;BME280;58696;52.134;5.500;2023-02-22T06:15:43;101429.09;;;4.71;96.37
71043;BME280;58696;52.134;5.500;2023-02-22T06:18:10;101435.69;;;4.73;96.66
71043;BME280;58696;52.134;5.500;2023-02-22T06:20:39;101432.19;;;4.74;96.60
71043;BME280;58696;52.134;5.500;2023-02-22T06:23:06;101433.56;;;4.79;96.54
71043;BME280;58696;52.134;5.500;2023-02-22T06:25:33;101435.41;;;4.77;96.62
71043;BME280;58696;52.134;5.500;2023-02-22T06:28:01;101431.91;;;4.78;96.71
71043;BME280;58696;52.134;5.500;2023-02-22T06:30:30;101437.28;;;4.74;96.58
71043;BME280;58696;52.134;5.500;2023-02-22T06:32:57;101447.59;;;4.73;96.74
71043;BME280;58696;52.134;5.500;2023-02-22T06:35:23;101442.50;;;4.73;96.78
71043;BME280;58696;52.134;5.500;2023-02-22T06:37:50;101447.59;;;4.73;96.99
71043;BME280;58696;52.134;5.500;2023-02-22T06:40:19;101444.78;;;4.76;96.95
71043;BME280;58696;52.134;5.500;2023-02-22T06:42:51;101440.88;;;4.72;96.95
71043;BME280;58696;52.134;5.500;2023-02-22T06:45:19;101442.09;;;4.68;96.95
71043;BME280;58696;52.134;5.500;2023-02-22T06:47:50;101434.56;;;4.66;97.01
71043;BME280;58696;52.134;5.500;2023-02-22T06:50:28;101436.16;;;4.58;96.84
71043;BME280;58696;52.134;5.500;2023-02-22T06:52:58;101429.84;;;4.52;96.98
71043;BME280;58696;52.134;5.500;2023-02-22T06:55:27;101430.75;;;4.51;97.05
71043;BME280;58696;52.134;5.500;2023-02-22T06:57:54;101417.22;;;4.51;97.14
71043;BME280;58696;52.134;5.500;2023-02-22T07:00:22;101423.00;;;4.53;97.20
71043;BME280;58696;52.134;5.500;2023-02-22T07:02:54;101422.19;;;4.52;97.01
71043;BME280;58696;52.134;5.500;2023-02-22T07:05:25;101426.34;;;4.53;97.18
71043;BME280;58696;52.134;5.500;2023-02-22T07:08:00;101421.13;;;4.55;97.25
71043;BME280;58696;52.134;5.500;2023-02-22T07:10:30;101423.44;;;4.58;97.22
71043;BME280;58696;52.134;5.500;2023-02-22T07:12:56;101419.94;;;4.59;97.24
71043;BME280;58696;52.134;5.500;2023-02-22T07:15:25;101422.22;;;4.62;97.25
71043;BME280;58696;52.134;5.500;2023-02-22T07:17:54;101423.84;;;4.63;97.36
71043;BME280;58696;52.134;5.500;2023-02-22T07:20:24;101418.63;;;4.64;97.29
71043;BME280;58696;52.134;5.500;2023-02-22T07:22:53;101426.25;;;4.64;97.38
71043;BME280;58696;52.134;5.500;2023-02-22T07:25:21;101421.97;;;4.65;97.40
71043;BME280;58696;52.134;5.500;2023-02-22T07:27:51;101424.50;;;4.65;97.34
71043;BME280;58696;52.134;5.500;2023-02-22T07:30:28;101422.09;;;4.63;97.42
71043;BME280;58696;52.134;5.500;2023-02-22T07:32:59;101423.03;;;4.62;97.31
71043;BME280;58696;52.134;5.500;2023-02-22T07:35:33;101427.31;;;4.62;97.33
71043;BME280;58696;52.134;5.500;2023-02-22T07:38:05;101425.59;;;4.62;97.64
71043;BME280;58696;52.134;5.500;2023-02-22T07:40:34;101433.75;;;4.66;97.44
71043;BME280;58696;52.134;5.500;2023-02-22T07:43:04;101425.75;;;4.70;97.58
71043;BME280;58696;52.134;5.500;2023-02-22T07:45:34;101432.06;;;4.76;97.48
71043;BME280;58696;52.134;5.500;2023-02-22T07:48:05;101433.56;;;4.79;97.49
71043;BME280;58696;52.134;5.500;2023-02-22T07:50:33;101427.63;;;4.78;97.58
71043;BME280;58696;52.134;5.500;2023-02-22T07:53:04;101433.41;;;4.80;97.50
71043;BME280;58696;52.134;5.500;2023-02-22T07:55:31;101434.88;;;4.83;97.64
71043;BME280;58696;52.134;5.500;2023-02-22T07:58:00;101427.94;;;4.85;97.65
71043;BME280;58696;52.134;5.500;2023-02-22T08:03:00;101436.91;;;4.89;97.55
71043;BME280;58696;52.134;5.500;2023-02-22T08:05:28;101438.53;;;4.90;97.75
71043;BME280;58696;52.134;5.500;2023-02-22T08:07:57;101447.00;;;4.90;97.73
71043;BME280;58696;52.134;5.500;2023-02-22T08:10:24;101438.41;;;4.91;97.80
71043;BME280;58696;52.134;5.500;2023-02-22T08:12:54;101432.94;;;4.96;97.89
71043;BME280;58696;52.134;5.500;2023-02-22T08:15:32;101444.34;;;5.01;97.66
71043;BME280;58696;52.134;5.500;2023-02-22T08:18:01;101438.97;;;5.05;97.74
71043;BME280;58696;52.134;5.500;2023-02-22T08:20:31;101437.91;;;5.07;97.58
71043;BME280;58696;52.134;5.500;2023-02-22T08:22:57;101436.16;;;5.08;97.49
71043;BME280;58696;52.134;5.500;2023-02-22T08:25:28;101435.88;;;5.11;97.56
71043;BME280;58696;52.134;5.500;2023-02-22T08:28:05;101439.78;;;5.15;97.70
71043;BME280;58696;52.134;5.500;2023-02-22T08:30:35;101438.59;;;5.19;97.79
71043;BME280;58696;52.134;5.500;2023-02-22T08:33:05;101431.75;;;5.19;97.52
71043;BME280;58696;52.134;5.500;2023-02-22T08:35:35;101435.81;;;5.22;97.81
71043;BME280;58696;52.134;5.500;2023-02-22T08:38:06;101422.91;;;5.23;97.74
71043;BME280;58696;52.134;5.500;2023-02-22T08:40:36;101428.41;;;5.28;97.52
71043;BME280;58696;52.134;5.500;2023-02-22T08:43:08;101439.84;;;5.34;97.65
71043;BME280;58696;52.134;5.500;2023-02-22T08:45:34;101428.03;;;5.33;97.77
71043;BME280;58696;52.134;5.500;2023-02-22T08:48:02;101436.09;;;5.38;97.76
71043;BME280;58696;52.134;5.500;2023-02-22T08:50:31;101440.25;;;5.39;97.49
71043;BME280;58696;52.134;5.500;2023-02-22T08:53:03;101441.28;;;5.37;97.45
71043;BME280;58696;52.134;5.500;2023-02-22T08:55:35;101441.19;;;5.38;97.39
71043;BME280;58696;52.134;5.500;2023-02-22T08:58:03;101431.66;;;5.40;97.70
71043;BME280;58696;52.134;5.500;2023-02-22T09:00:33;101426.41;;;5.42;97.33
71043;BME280;58696;52.134;5.500;2023-02-22T09:03:01;101421.84;;;5.45;97.20
71043;BME280;58696;52.134;5.500;2023-02-22T09:05:28;101416.63;;;5.47;96.87
71043;BME280;58696;52.134;5.500;2023-02-22T09:07:57;101407.91;;;5.49;97.29
71043;BME280;58696;52.134;5.500;2023-02-22T09:10:27;101414.34;;;5.53;96.80
71043;BME280;58696;52.134;5.500;2023-02-22T09:12:54;101403.88;;;5.57;96.87
71043;BME280;58696;52.134;5.500;2023-02-22T09:15:22;101402.94;;;5.67;97.05
71043;BME280;58696;52.134;5.500;2023-02-22T09:17:50;101394.19;;;5.70;96.79
71043;BME280;58696;52.134;5.500;2023-02-22T09:20:22;101393.13;;;5.72;96.65
71043;BME280;58696;52.134;5.500;2023-02-22T09:22:50;101395.94;;;5.79;96.79
71043;BME280;58696;52.134;5.500;2023-02-22T09:25:17;101400.47;;;5.85;96.72
71043;BME280;58696;52.134;5.500;2023-02-22T09:27:52;101392.19;;;5.93;96.44
71043;BME280;58696;52.134;5.500;2023-02-22T09:30:28;101388.13;;;5.90;96.38
71043;BME280;58696;52.134;5.500;2023-02-22T09:33:03;101394.97;;;5.90;96.44
71043;BME280;58696;52.134;5.500;2023-02-22T09:35:33;101398.09;;;5.93;96.67
71043;BME280;58696;52.134;5.500;2023-02-22T09:38:03;101406.81;;;6.00;96.33
71043;BME280;58696;52.134;5.500;2023-02-22T09:40:37;101403.69;;;6.06;96.13
71043;BME280;58696;52.134;5.500;2023-02-22T09:48:49;101382.28;;;6.27;96.15
71043;BME280;58696;52.134;5.500;2023-02-22T09:51:18;101384.13;;;6.35;95.91
71043;BME280;58696;52.134;5.500;2023-02-22T09:53:48;101388.81;;;6.39;95.79
71043;BME280;58696;52.134;5.500;2023-02-22T09:56:19;101373.88;;;6.44;95.64
71043;BME280;58696;52.134;5.500;2023-02-22T09:58:48;101375.59;;;6.53;95.37
71043;BME280;58696;52.134;5.500;2023-02-22T10:01:25;101359.38;;;6.63;95.28
71043;BME280;58696;52.134;5.500;2023-02-22T10:03:59;101355.41;;;6.78;95.13
71043;BME280;58696;52.134;5.500;2023-02-22T10:06:32;101360.31;;;6.89;94.60
71043;BME280;58696;52.134;5.500;2023-02-22T10:09:02;101358.44;;;6.91;94.43
71043;BME280;58696;52.134;5.500;2023-02-22T10:14:14;101353.91;;;7.21;94.27
71043;BME280;58696;52.134;5.500;2023-02-22T10:17:16;101353.66;;;7.32;93.78
71043;BME280;58696;52.134;5.500;2023-02-22T10:22:56;101334.00;;;7.50;93.40
71043;BME280;58696;52.134;5.500;2023-02-22T10:25:29;101334.34;;;7.55;93.01
71043;BME280;58696;52.134;5.500;2023-02-22T10:28:29;101335.28;;;7.54;92.91
71043;BME280;58696;52.134;5.500;2023-02-22T10:31:07;101336.34;;;7.70;93.08
71043;BME280;58696;52.134;5.500;2023-02-22T10:33:40;101342.81;;;7.82;92.47
71043;BME280;58696;52.134;5.500;2023-02-22T10:36:19;101347.13;;;7.81;92.07
71043;BME280;58696;52.134;5.500;2023-02-22T10:39:01;101344.63;;;7.89;91.91
71043;BME280;58696;52.134;5.500;2023-02-22T10:41:48;101344.72;;;8.06;91.67
71043;BME280;58696;52.134;5.500;2023-02-22T10:44:15;101346.81;;;8.10;91.33
71043;BME280;58696;52.134;5.500;2023-02-22T10:46:47;101338.66;;;8.15;91.29
71043;BME280;58696;52.134;5.500;2023-02-22T10:49:23;101340.63;;;8.21;91.04
71043;BME280;58696;52.134;5.500;2023-02-22T10:52:00;101340.94;;;8.26;90.58
71043;BME280;58696;52.134;5.500;2023-02-22T10:54:31;101338.25;;;8.28;90.22
71043;BME280;58696;52.134;5.500;2023-02-22T10:57:04;101341.97;;;8.33;89.83
71043;BME280;58696;52.134;5.500;2023-02-22T10:59:33;101332.22;;;8.37;89.64
71043;BME280;58696;52.134;5.500;2023-02-22T11:02:07;101337.78;;;8.32;90.22
71043;BME280;58696;52.134;5.500;2023-02-22T11:04:51;101339.56;;;8.32;89.59
71043;BME280;58696;52.134;5.500;2023-02-22T11:12:41;101327.81;;;8.63;88.76
71043;BME280;58696;52.134;5.500;2023-02-22T11:17:46;101329.59;;;8.71;87.27
71043;BME280;58696;52.134;5.500;2023-02-22T11:20:27;101337.97;;;8.81;87.16
71043;BME280;58696;52.134;5.500;2023-02-22T11:22:56;101328.66;;;8.80;87.39
71043;BME280;58696;52.134;5.500;2023-02-22T11:25:40;101321.91;;;8.71;87.27
71043;BME280;58696;52.134;5.500;2023-02-22T11:28:16;101330.06;;;8.66;87.76
71043;BME280;58696;52.134;5.500;2023-02-22T11:30:58;101316.63;;;8.64;87.50
71043;BME280;58696;52.134;5.500;2023-02-22T11:33:34;101326.88;;;8.64;87.78
71043;BME280;58696;52.134;5.500;2023-02-22T11:36:04;101324.44;;;8.63;87.82
71043;BME280;58696;52.134;5.500;2023-02-22T11:38:38;101315.16;;;8.62;87.71
71043;BME280;58696;52.134;5.500;2023-02-22T11:41:20;101321.56;;;8.58;87.46
71043;BME280;58696;52.134;5.500;2023-02-22T11:43:51;101309.88;;;8.55;87.70
71043;BME280;58696;52.134;5.500;2023-02-22T11:46:21;101312.75;;;8.52;87.70
71043;BME280;58696;52.134;5.500;2023-02-22T11:49:10;101310.19;;;8.52;87.54
71043;BME280;58696;52.134;5.500;2023-02-22T11:56:52;101303.97;;;8.63;87.62
71043;BME280;58696;52.134;5.500;2023-02-22T12:05:28;101292.75;;;8.80;87.42
71043;BME280;58696;52.134;5.500;2023-02-22T12:08:35;101284.78;;;8.83;87.24
71043;BME280;58696;52.134;5.500;2023-02-22T12:17:01;101280.44;;;8.76;86.78
71043;BME280;58696;52.134;5.500;2023-02-22T12:19:35;101284.44;;;8.70;87.01
71043;BME280;58696;52.134;5.500;2023-02-22T12:24:47;101277.38;;;8.56;86.88
71043;BME280;58696;52.134;5.500;2023-02-22T12:27:35;101287.44;;;8.57;87.25
71043;BME280;58696;52.134;5.500;2023-02-22T12:30:29;101286.97;;;8.62;87.24
71043;BME280;58696;52.134;5.500;2023-02-22T12:33:05;101286.81;;;8.63;87.53
71043;BME280;58696;52.134;5.500;2023-02-22T12:35:38;101283.16;;;8.66;87.48
71043;BME280;58696;52.134;5.500;2023-02-22T12:41:19;101277.22;;;8.74;87.46
71043;BME280;58696;52.134;5.500;2023-02-22T12:43:52;101273.22;;;8.79;87.61
71043;BME280;58696;52.134;5.500;2023-02-22T12:46:46;101268.09;;;8.79;87.45
71043;BME280;58696;52.134;5.500;2023-02-22T13:00:39;101267.31;;;8.95;86.50
71043;BME280;58696;52.134;5.500;2023-02-22T13:03:42;101262.19;;;9.03;86.36
71043;BME280;58696;52.134;5.500;2023-02-22T13:06:21;101262.34;;;9.10;86.03
71043;BME280;58696;52.134;5.500;2023-02-22T13:09:25;101259.78;;;9.10;85.98
71043;BME280;58696;52.134;5.500;2023-02-22T13:17:24;101263.28;;;9.17;85.58
71043;BME280;58696;52.134;5.500;2023-02-22T13:20:15;101255.59;;;9.17;85.55
71043;BME280;58696;52.134;5.500;2023-02-22T13:25:57;101265.06;;;9.16;86.01
71043;BME280;58696;52.134;5.500;2023-02-22T13:28:33;101263.63;;;9.14;86.07
71043;BME280;58696;52.134;5.500;2023-02-22T13:48:15;101243.84;;;9.39;85.81
71043;BME280;58696;52.134;5.500;2023-02-22T13:51:02;101261.34;;;9.43;85.00
71043;BME280;58696;52.134;5.500;2023-02-22T13:53:41;101251.06;;;9.43;85.13
71043;BME280;58696;52.134;5.500;2023-02-22T13:56:13;101260.22;;;9.38;85.51
71043;BME280;58696;52.134;5.500;2023-02-22T13:59:00;101251.91;;;9.36;85.50
71043;BME280;58696;52.134;5.500;2023-02-22T14:01:46;101252.56;;;9.21;85.58
71043;BME280;58696;52.134;5.500;2023-02-22T14:06:59;101263.44;;;9.07;86.22
71043;BME280;58696;52.134;5.500;2023-02-22T14:09:58;101264.75;;;9.03;86.56
71043;BME280;58696;52.134;5.500;2023-02-22T14:15:17;101264.91;;;9.02;86.79
71043;BME280;58696;52.134;5.500;2023-02-22T14:25:52;101264.44;;;8.98;86.81
71043;BME280;58696;52.134;5.500;2023-02-22T14:34:30;101264.28;;;9.00;87.01
71043;BME280;58696;52.134;5.500;2023-02-22T14:36:58;101272.75;;;9.00;86.83
71043;BME280;58696;52.134;5.500;2023-02-22T14:42:11;101275.81;;;9.04;87.35
71043;BME280;58696;52.134;5.500;2023-02-22T14:45:21;101276.13;;;9.09;87.48
71043;BME280;58696;52.134;5.500;2023-02-22T14:50:47;101274.84;;;9.21;87.03
71043;BME280;58696;52.134;5.500;2023-02-22T14:56:53;101275.78;;;9.36;86.40
71043;BME280;58696;52.134;5.500;2023-02-22T14:59:28;101278.00;;;9.39;85.80
71043;BME280;58696;52.134;5.500;2023-02-22T15:02:11;101278.66;;;9.41;85.73
71043;BME280;58696;52.134;5.500;2023-02-22T15:04:40;101266.28;;;9.45;86.00
71043;BME280;58696;52.134;5.500;2023-02-22T15:07:28;101274.47;;;9.40;86.00
71043;BME280;58696;52.134;5.500;2023-02-22T15:12:53;101269.50;;;9.39;85.99
71043;BME280;58696;52.134;5.500;2023-02-22T15:15:24;101266.94;;;9.39;86.04
71043;BME280;58696;52.134;5.500;2023-02-22T15:17:53;101264.88;;;9.34;85.99
71043;BME280;58696;52.134;5.500;2023-02-22T15:20:22;101261.03;;;9.30;85.99
71043;BME280;58696;52.134;5.500;2023-02-22T15:22:50;101265.69;;;9.27;86.48
71043;BME280;58696;52.134;5.500;2023-02-22T15:25:28;101261.84;;;9.22;86.45
71043;BME280;58696;52.134;5.500;2023-02-22T15:28:04;101268.09;;;9.20;86.35
71043;BME280;58696;52.134;5.500;2023-02-22T15:30:34;101266.66;;;9.17;86.04
71043;BME280;58696;52.134;5.500;2023-02-22T15:33:27;101270.34;;;9.15;86.25
71043;BME280;58696;52.134;5.500;2023-02-22T15:35:56;101267.97;;;9.13;86.42
71043;BME280;58696;52.134;5.500;2023-02-22T15:38:29;101266.69;;;9.09;86.55
71043;BME280;58696;52.134;5.500;2023-02-22T15:41:05;101271.16;;;9.07;86.91